Time;durP1;ratioP1;P1;durP2;ratioP2;P2;SDS_P1;SDS_P2;PMS_P1;PMS_P2;Temp;Humidity;BMP_temperature;BMP_pressure;BME280_temperature;BME280_humidity;BME280_pressure;Samples;Min_cycle;Max_cycle;Signal;HPM_P1;HPM_P2
2022/10/07 00:00:23;;;;;;;15.10;5.20;;;;;;;;;;5034984;28;20406;-59
2022/10/07 00:02:49;;;;;;;13.80;4.85;;;9.30;99.90;;;;;;5035101;28;20099;-59
2022/10/07 00:05:14;;;;;;;13.93;5.10;;;8.90;99.90;;;;;;5034882;28;20436;-59
2022/10/07 00:07:40;;;;;;;17.45;5.10;;;;;;;;;;5034978;28;20048;-59
2022/10/07 00:10:06;;;;;;;15.68;5.68;;;;;;;;;;5034745;28;20379;-59
2022/10/07 00:12:35;;;;;;;11.73;5.22;;;9.00;99.90;;;;;;5034005;28;20038;-59
2022/10/07 00:15:04;;;;;;;13.32;5.43;;;9.10;99.90;;;;;;5034901;28;20113;-59
2022/10/07 00:17:31;;;;;;;16.05;5.45;;;8.90;99.90;;;;;;5035101;28;20037;-59
2022/10/07 00:19:57;;;;;;;9.88;5.38;;;9.10;99.90;;;;;;5034903;28;20036;-59
2022/10/07 00:22:23;;;;;;;14.93;5.57;;;;;;;;;;5034733;28;20405;-59
2022/10/07 00:24:59;;;;;;;15.35;5.30;;;8.40;99.90;;;;;;5034741;28;20120;-59
2022/10/07 00:27:25;;;;;;;14.82;5.00;;;9.00;99.90;;;;;;5034659;28;20060;-59
2022/10/07 00:29:50;;;;;;;14.27;5.32;;;8.70;99.90;;;;;;5034454;28;20407;-59
2022/10/07 00:32:16;;;;;;;9.75;5.05;;;8.10;99.90;;;;;;5034384;28;20049;-59
2022/10/07 00:34:42;;;;;;;21.05;5.28;;;8.60;99.90;;;;;;5034455;28;20473;-59
2022/10/07 00:37:08;;;;;;;15.05;5.40;;;9.30;99.90;;;;;;5034656;28;20038;-59
2022/10/07 00:39:34;;;;;;;15.63;5.43;;;;;;;;;;5034385;28;20045;-59
2022/10/07 00:42:01;;;;;;;10.95;4.97;;;8.60;99.90;;;;;;5034333;28;20439;-57
2022/10/07 00:44:30;;;;;;;23.85;5.15;;;8.60;99.90;;;;;;5034109;28;20041;-61
2022/10/07 00:47:10;;;;;;;11.18;4.85;;;8.60;99.90;;;;;;5034107;28;20050;-59
2022/10/07 00:49:41;;;;;;;14.77;5.13;;;8.60;99.90;;;;;;5034345;28;20069;-59
2022/10/07 00:52:19;;;;;;;18.75;5.05;;;8.60;99.90;;;;;;5034504;28;20041;-59
2022/10/07 00:54:46;;;;;;;13.75;5.10;;;8.50;99.90;;;;;;5034032;28;20482;-59
2022/10/07 00:57:15;;;;;;;11.07;4.72;;;8.60;99.90;;;;;;5034327;28;20052;-59
2022/10/07 00:59:41;;;;;;;10.52;4.78;;;;;;;;;;5032960;28;20037;-59
2022/10/07 01:02:07;;;;;;;14.95;5.18;;;8.60;99.90;;;;;;5033970;28;20110;-57
2022/10/07 01:04:35;;;;;;;14.88;4.90;;;8.60;99.90;;;;;;5035838;28;20057;-57
2022/10/07 01:07:02;;;;;;;10.40;4.95;;;8.50;99.90;;;;;;5033743;28;20047;-57
2022/10/07 01:09:29;;;;;;;18.27;5.25;;;8.50;99.90;;;;;;5033570;28;20055;-57
2022/10/07 01:12:03;;;;;;;13.95;4.90;;;8.80;99.90;;;;;;5033176;28;20042;-57
2022/10/07 01:14:51;;;;;;;11.07;5.10;;;9.00;99.90;;;;;;5032307;28;20373;-59
2022/10/07 01:17:17;;;;;;;17.65;4.90;;;;;;;;;;5033787;28;20037;-59
2022/10/07 01:20:19;;;;;;;15.48;5.13;;;8.40;99.90;;;;;;5033700;28;20041;-59
2022/10/07 01:23:07;;;;;;;15.40;5.10;;;8.80;99.90;;;;;;5033714;28;20048;-59
2022/10/07 01:25:40;;;;;;;16.42;5.20;;;8.60;99.90;;;;;;5033672;28;20056;-59
2022/10/07 01:28:14;;;;;;;13.13;4.80;;;8.50;99.90;;;;;;5032128;28;20562;-59
2022/10/07 01:30:46;;;;;;;12.23;5.13;;;8.50;99.90;;;;;;5033858;28;20050;-57
2022/10/07 01:33:17;;;;;;;20.63;5.10;;;8.10;99.90;;;;;;5033626;28;20064;-57
2022/10/07 01:35:49;;;;;;;14.63;4.85;;;8.50;99.90;;;;;;5033372;28;20481;-57
2022/10/07 01:38:19;;;;;;;17.88;5.43;;;7.80;99.90;;;;;;5033424;28;20057;-59
2022/10/07 01:40:51;;;;;;;12.23;4.50;;;8.50;99.90;;;;;;5033187;28;20042;-59
2022/10/07 01:43:20;;;;;;;13.30;4.93;;;8.60;99.90;;;;;;5033504;28;20191;-59
2022/10/07 01:45:47;;;;;;;14.20;4.75;;;;;;;;;;5032308;28;20088;-59
2022/10/07 01:48:14;;;;;;;13.38;4.60;;;8.60;99.90;;;;;;5033227;28;20053;-57
2022/10/07 01:50:43;;;;;;;10.20;4.43;;;8.80;99.90;;;;;;5033122;28;20041;-57
2022/10/07 01:53:19;;;;;;;16.20;4.60;;;8.50;99.90;;;;;;5033016;28;20034;-57
2022/10/07 01:56:27;;;;;;;13.40;4.60;;;8.60;99.90;;;;;;5033489;28;20446;-57
2022/10/07 01:59:15;;;;;;;19.10;5.15;;;8.60;99.90;;;;;;5033223;28;20037;-59
2022/10/07 02:02:01;;;;;;;15.90;4.93;;;8.70;99.90;;;;;;5033418;28;20060;-59
2022/10/07 02:04:38;;;;;;;14.95;4.60;;;8.60;99.90;;;;;;5033108;28;20041;-59
2022/10/07 02:07:33;;;;;;;17.08;4.75;;;8.60;99.90;;;;;;5033240;28;20454;-59
2022/10/07 02:10:08;;;;;;;14.68;5.50;;;8.60;99.90;;;;;;5033162;28;20080;-59
2022/10/07 02:12:53;;;;;;;17.02;5.28;;;8.90;99.90;;;;;;5033097;28;20120;-59
2022/10/07 02:15:23;;;;;;;13.63;4.90;;;8.40;99.90;;;;;;5032982;28;20045;-59
2022/10/07 02:17:55;;;;;;;13.93;5.03;;;8.40;99.90;;;;;;5033052;28;20049;-60
2022/10/07 02:20:25;;;;;;;14.27;5.93;;;8.40;99.90;;;;;;5032835;28;20038;-59
2022/10/07 02:22:53;;;;;;;13.38;5.10;;;8.50;99.90;;;;;;5033217;28;20037;-59
2022/10/07 02:25:21;;;;;;;14.10;4.70;;;8.30;99.90;;;;;;5033630;28;20132;-59
2022/10/07 02:27:51;;;;;;;13.35;5.07;;;8.40;99.90;;;;;;5037148;28;20045;-59
2022/10/07 02:30:21;;;;;;;16.10;5.35;;;8.40;99.90;;;;;;5036735;28;20049;-59
2022/10/07 02:32:58;;;;;;;13.68;4.68;;;8.20;99.90;;;;;;5036770;28;20041;-57
2022/10/07 02:35:33;;;;;;;12.77;4.55;;;8.30;99.90;;;;;;5036784;28;20120;-57
2022/10/07 02:38:04;;;;;;;13.73;4.75;;;8.00;99.90;;;;;;5037140;28;20041;-57
2022/10/07 02:40:39;;;;;;;11.50;5.03;;;8.30;99.90;;;;;;5036569;28;20057;-57
2022/10/07 02:43:34;;;;;;;17.90;4.75;;;8.30;99.90;;;;;;5036503;28;20099;-57
2022/10/07 02:46:02;;;;;;;15.38;5.13;;;7.90;99.90;;;;;;5036647;28;20045;-57
2022/10/07 02:48:56;;;;;;;11.13;4.90;;;7.60;99.90;;;;;;5036878;28;20366;-59
2022/10/07 02:51:26;;;;;;;16.55;5.53;;;8.20;99.90;;;;;;5036193;28;20033;-58
2022/10/07 02:53:54;;;;;;;16.92;5.32;;;8.10;99.90;;;;;;5036469;28;20038;-60
2022/10/07 02:56:22;;;;;;;16.65;5.30;;;8.20;99.90;;;;;;5036443;28;20045;-58
2022/10/07 02:58:49;;;;;;;18.10;5.43;;;8.20;99.90;;;;;;5036281;28;20038;-58
2022/10/07 03:01:19;;;;;;;16.40;5.50;;;8.20;99.90;;;;;;5034825;28;20052;-59
2022/10/07 03:03:45;;;;;;;16.83;4.85;;;8.10;99.90;;;;;;5036097;28;20049;-59
2022/10/07 03:06:17;;;;;;;16.23;5.03;;;8.20;99.90;;;;;;5035841;28;20049;-58
2022/10/07 03:08:47;;;;;;;15.82;5.10;;;;;;;;;;5036453;28;20052;-58
2022/10/07 03:11:15;;;;;;;14.75;4.90;;;;;;;;;;5036107;28;20042;-58
2022/10/07 03:13:40;;;;;;;16.95;5.65;;;8.20;99.90;;;;;;5036041;28;20045;-60
2022/10/07 03:16:06;;;;;;;21.35;4.88;;;;;;;;;;5035877;28;20076;-60
2022/10/07 03:18:33;;;;;;;20.00;5.70;;;8.00;99.90;;;;;;5035894;28;20134;-59
2022/10/07 03:20:59;;;;;;;18.42;5.45;;;8.10;99.90;;;;;;5036183;28;20069;-60
2022/10/07 03:23:30;;;;;;;17.92;5.50;;;9.00;99.90;;;;;;5036274;28;20056;-60
2022/10/07 03:25:57;;;;;;;13.25;4.97;;;8.20;99.90;;;;;;5034580;28;20041;-60
2022/10/07 03:28:25;;;;;;;20.00;5.75;;;8.00;99.90;;;;;;5036166;28;20045;-60
2022/10/07 03:30:51;;;;;;;12.27;4.97;;;8.00;99.90;;;;;;5035676;28;20034;-60
2022/10/07 03:33:18;;;;;;;14.23;5.10;;;8.50;99.90;;;;;;5035545;28;20041;-63
2022/10/07 03:35:44;;;;;;;19.98;5.40;;;8.20;99.90;;;;;;5035088;28;20041;-60
2022/10/07 03:38:11;;;;;;;16.05;5.15;;;7.40;99.90;;;;;;5035810;28;20041;-60
2022/10/07 03:40:37;;;;;;;16.58;5.53;;;8.30;99.90;;;;;;5035487;28;20052;-59
2022/10/07 03:43:04;;;;;;;18.75;5.22;;;7.80;99.90;;;;;;5035502;28;20523;-60
2022/10/07 03:45:31;;;;;;;17.05;5.88;;;8.10;99.90;;;;;;5036019;28;20041;-60
2022/10/07 03:48:00;;;;;;;24.02;5.90;;;9.10;99.90;;;;;;5035679;28;20049;-60
2022/10/07 03:50:26;;;;;;;17.00;5.88;;;;;;;;;;5035450;28;20053;-60
2022/10/07 03:52:52;;;;;;;24.67;5.72;;;8.20;99.90;;;;;;5035188;28;20029;-60
2022/10/07 03:55:18;;;;;;;15.48;5.22;;;8.40;99.90;;;;;;5034531;28;20037;-59
2022/10/07 03:57:53;;;;;;;18.45;5.80;;;;;;;;;;5033750;28;20048;-59
2022/10/07 04:00:21;;;;;;;17.75;5.72;;;8.20;99.90;;;;;;5015891;28;20074;-60
2022/10/07 04:02:48;;;;;;;16.77;5.75;;;8.30;99.90;;;;;;5033403;28;20041;-60
2022/10/07 04:05:19;;;;;;;18.17;5.95;;;8.30;99.90;;;;;;5033239;28;20037;-59
2022/10/07 04:07:50;;;;;;;25.75;5.60;;;7.90;99.90;;;;;;5033149;28;20048;-60
2022/10/07 04:10:20;;;;;;;22.88;5.47;;;8.60;99.90;;;;;;5032405;28;20073;-60
2022/10/07 04:12:50;;;;;;;18.08;5.57;;;8.70;99.90;;;;;;5034854;28;20143;-60
2022/10/07 04:15:19;;;;;;;22.77;5.20;;;9.40;99.90;;;;;;5034750;28;20230;-60
2022/10/07 04:17:46;;;;;;;25.23;6.15;;;8.20;99.90;;;;;;5034793;28;20041;-59
2022/10/07 04:20:14;;;;;;;23.25;6.10;;;8.40;99.90;;;;;;5034779;28;20103;-59
2022/10/07 04:22:40;;;;;;;20.67;5.50;;;8.10;99.90;;;;;;5034847;28;20041;-59
2022/10/07 04:27:55;;;;;;;23.92;5.97;;;8.00;99.90;;;;;;5034938;28;20037;-58
2022/10/07 04:30:22;;;;;;;20.13;5.47;;;8.50;99.90;;;;;;5034622;28;20045;-58
2022/10/07 04:32:49;;;;;;;21.48;5.22;;;8.60;99.90;;;;;;5034604;28;20037;-58
2022/10/07 04:35:22;;;;;;;18.95;5.40;;;8.60;99.90;;;;;;5033255;28;20053;-58
2022/10/07 04:37:49;;;;;;;16.95;5.53;;;8.70;99.90;;;;;;5034303;28;20036;-58
2022/10/07 04:40:15;;;;;;;21.98;5.75;;;8.60;99.90;;;;;;5034543;28;20393;-58
2022/10/07 04:45:25;;;;;;;25.70;6.63;;;8.70;99.90;;;;;;5034437;28;20048;-59
2022/10/07 04:47:51;;;;;;;20.50;6.22;;;;;;;;;;5033543;28;20108;-58
2022/10/07 04:50:17;;;;;;;24.35;5.95;;;8.80;99.90;;;;;;5034035;28;20501;-58
2022/10/07 04:52:43;;;;;;;22.45;6.18;;;;;;;;;;5034294;28;20112;-58
2022/10/07 04:55:11;;;;;;;22.33;6.63;;;8.80;99.90;;;;;;5034157;28;20041;-58
2022/10/07 04:57:38;;;;;;;18.60;6.00;;;8.80;99.90;;;;;;5033059;28;20053;-58
2022/10/07 05:00:06;;;;;;;18.60;6.15;;;8.80;99.90;;;;;;5034093;28;20049;-58
2022/10/07 05:02:32;;;;;;;21.27;6.55;;;8.80;99.90;;;;;;5032740;28;20112;-58
2022/10/07 05:05:02;;;;;;;23.35;6.43;;;8.30;99.90;;;;;;5034082;28;20124;-58
2022/10/07 05:07:29;;;;;;;26.48;7.03;;;;;;;;;;5049862;28;20051;-58
2022/10/07 05:10:02;;;;;;;24.90;7.13;;;8.70;99.90;;;;;;5053715;28;20045;-58
2022/10/07 05:12:29;;;;;;;26.00;6.28;;;;;;;;;;5053452;28;20102;-59
2022/10/07 05:14:58;;;;;;;22.08;6.63;;;8.80;99.90;;;;;;5053136;28;20110;-58
2022/10/07 05:17:24;;;;;;;19.52;6.25;;;9.00;99.90;;;;;;5053497;28;20445;-59
2022/10/07 05:19:50;;;;;;;18.20;5.80;;;;;;;;;;5053763;28;20041;-58
2022/10/07 05:22:16;;;;;;;17.10;6.35;;;;;;;;;;5053614;28;20393;-58
2022/10/07 05:24:42;;;;;;;23.67;6.40;;;;;;;;;;5053614;28;20430;-58
2022/10/07 05:27:13;;;;;;;23.10;6.15;;;8.80;99.90;;;;;;5053549;28;20072;-58
2022/10/07 05:29:39;;;;;;;18.55;7.10;;;;;;;;;;5053375;28;20106;-58
2022/10/07 05:32:07;;;;;;;25.38;6.65;;;8.90;99.90;;;;;;5052180;28;20052;-58
2022/10/07 05:34:34;;;;;;;19.85;6.35;;;8.80;99.90;;;;;;5053494;28;20066;-58
2022/10/07 05:37:00;;;;;;;22.02;6.82;;;8.80;99.90;;;;;;5053470;28;20041;-58
2022/10/07 05:39:26;;;;;;;31.50;6.47;;;8.90;99.90;;;;;;5053503;28;20044;-59
2022/10/07 05:41:52;;;;;;;21.67;6.10;;;;;;;;;;5053257;28;20382;-58
2022/10/07 05:44:18;;;;;;;14.65;5.82;;;9.00;99.90;;;;;;5052984;28;20097;-59
2022/10/07 05:46:49;;;;;;;20.77;6.00;;;9.20;99.90;;;;;;5053302;28;20049;-61
2022/10/07 05:49:14;;;;;;;23.23;5.90;;;8.80;99.90;;;;;;5053222;28;20392;-61
2022/10/07 05:51:41;;;;;;;24.20;6.18;;;8.60;99.90;;;;;;5053242;28;20118;-60
2022/10/07 05:54:07;;;;;;;26.10;6.18;;;;;;;;;;5053021;28;20045;-60
2022/10/07 05:56:36;;;;;;;19.92;6.03;;;9.00;99.90;;;;;;5052816;28;20551;-61
2022/10/07 05:59:06;;;;;;;17.42;5.47;;;9.40;99.90;;;;;;5052637;28;20116;-60
2022/10/07 06:01:34;;;;;;;21.95;6.18;;;8.90;99.90;;;;;;5051706;28;20493;-60
2022/10/07 06:03:59;;;;;;;29.85;6.43;;;9.00;99.90;;;;;;5053055;28;20041;-59
2022/10/07 06:06:28;;;;;;;21.40;5.55;;;9.10;99.90;;;;;;5052815;28;20041;-58
2022/10/07 06:13:06;;;;;;;19.52;5.85;;;9.20;99.90;;;;;;5052870;28;20040;-59
2022/10/07 06:14:26;;;;;;;23.85;6.00;;;9.30;99.90;;;;;;5052969;28;20045;-60
2022/10/07 06:16:52;;;;;;;20.42;6.22;;;8.90;99.90;;;;;;5052631;28;20102;-60
2022/10/07 06:19:21;;;;;;;17.90;5.75;;;;;;;;;;5052105;28;20124;-60
2022/10/07 06:21:50;;;;;;;26.35;6.13;;;9.20;99.90;;;;;;5051821;28;20049;-60
2022/10/07 06:24:16;;;;;;;21.92;5.60;;;9.30;99.90;;;;;;5052696;28;20389;-60
2022/10/07 06:26:42;;;;;;;18.38;5.95;;;9.60;99.90;;;;;;5051545;28;20037;-60
2022/10/07 06:29:09;;;;;;;20.60;6.00;;;9.60;99.90;;;;;;5053495;28;20044;-60
2022/10/07 06:31:38;;;;;;;26.08;5.80;;;;;;;;;;5051415;28;20124;-61
2022/10/07 06:34:05;;;;;;;22.63;6.18;;;;;;;;;;5051690;28;20084;-59
2022/10/07 06:36:30;;;;;;;29.33;6.63;;;9.80;99.90;;;;;;5052577;28;20393;-58
2022/10/07 06:38:58;;;;;;;24.65;6.30;;;;;;;;;;5052599;28;20044;-57
2022/10/07 06:41:24;;;;;;;20.58;6.07;;;9.50;99.90;;;;;;5052627;28;20087;-57
2022/10/07 06:43:55;;;;;;;20.65;5.22;;;10.00;99.90;;;;;;5052726;28;20041;-57
2022/10/07 06:46:22;;;;;;;17.08;5.65;;;10.10;99.90;;;;;;5052778;28;20163;-58
2022/10/07 06:48:47;;;;;;;25.85;5.78;;;10.00;99.90;;;;;;5052439;28;20566;-57
2022/10/07 06:51:23;;;;;;;21.38;5.10;;;10.10;99.90;;;;;;5052447;28;20500;-58
2022/10/07 06:53:56;;;;;;;18.42;5.25;;;10.30;99.90;;;;;;5052593;28;20392;-58
2022/10/07 06:56:22;;;;;;;24.48;6.00;;;10.30;99.90;;;;;;5052424;28;20045;-58
2022/10/07 06:58:48;;;;;;;23.98;5.35;;;;;;;;;;5051784;28;20075;-58
2022/10/07 07:01:15;;;;;;;24.05;5.18;;;;;;;;;;5052484;28;20090;-59
2022/10/07 07:03:41;;;;;;;21.75;5.00;;;;;;;;;;5050724;28;20049;-59
2022/10/07 07:06:09;;;;;;;22.92;5.03;;;;;;;;;;5052446;28;20089;-59
2022/10/07 07:08:37;;;;;;;25.48;5.10;;;11.00;99.90;;;;;;5051951;28;20048;-57
2022/10/07 07:13:57;;;;;;;20.30;5.35;;;11.20;99.90;;;;;;5055805;28;20052;-59
2022/10/07 07:16:24;;;;;;;20.10;5.00;;;11.30;99.90;;;;;;5055759;28;20089;-57
2022/10/07 07:18:52;;;;;;;18.27;5.05;;;11.40;99.90;;;;;;5033717;28;20561;-57
2022/10/07 07:21:21;;;;;;;19.95;5.10;;;11.30;99.90;;;;;;5053668;28;20037;-57
2022/10/07 07:23:50;;;;;;;23.73;5.03;;;11.60;99.90;;;;;;5054150;28;20416;-57
2022/10/07 07:26:17;;;;;;;21.40;4.88;;;11.20;99.90;;;;;;5054871;28;20116;-56
2022/10/07 07:28:43;;;;;;;15.35;4.65;;;11.50;99.90;;;;;;5053856;28;20067;-57
2022/10/07 07:31:12;;;;;;;20.60;5.43;;;11.50;99.90;;;;;;5054584;28;20045;-57
2022/10/07 07:33:42;;;;;;;16.83;5.05;;;11.80;99.90;;;;;;5053714;28;20460;-58
2022/10/07 07:36:15;;;;;;;15.82;4.95;;;11.60;99.90;;;;;;5052952;28;20128;-59
2022/10/07 07:38:52;;;;;;;19.20;5.70;;;11.40;99.90;;;;;;5034232;28;20084;-59
2022/10/07 07:41:24;;;;;;;16.75;4.72;;;11.70;99.90;;;;;;5034675;28;20041;-59
2022/10/07 07:43:52;;;;;;;19.95;4.68;;;12.20;99.90;;;;;;5033979;28;20046;-59
2022/10/07 07:46:22;;;;;;;18.67;4.93;;;11.80;99.90;;;;;;5034741;28;20042;-59
2022/10/07 07:48:50;;;;;;;20.42;5.18;;;11.90;99.90;;;;;;5034173;28;20064;-59
2022/10/07 07:51:17;;;;;;;22.85;5.03;;;12.00;99.90;;;;;;5034488;28;20048;-59
2022/10/07 07:53:45;;;;;;;20.67;5.30;;;12.10;99.90;;;;;;5075326;28;20045;-60
2022/10/07 07:56:12;;;;;;;15.15;4.25;;;12.80;99.90;;;;;;5053872;28;20123;-60
2022/10/07 07:58:38;;;;;;;18.13;4.68;;;12.20;99.90;;;;;;5054774;28;20033;-60
2022/10/07 08:01:12;;;;;;;18.40;4.90;;;12.40;99.90;;;;;;5054283;28;20094;-60
2022/10/07 08:03:42;;;;;;;22.20;5.18;;;13.40;99.90;;;;;;5053472;28;20484;-60
2022/10/07 08:06:12;;;;;;;20.10;5.07;;;12.60;99.90;;;;;;5053440;28;20043;-60
2022/10/07 08:08:41;;;;;;;22.52;4.80;;;12.90;99.90;;;;;;5054617;28;20052;-60
2022/10/07 08:11:14;;;;;;;22.70;5.43;;;12.70;99.90;;;;;;5055005;28;20048;-59
2022/10/07 08:13:41;;;;;;;20.42;5.32;;;13.20;99.90;;;;;;5053530;28;20039;-60
2022/10/07 08:16:08;;;;;;;21.02;4.65;;;13.20;99.90;;;;;;5053877;28;20500;-59
2022/10/07 08:18:37;;;;;;;20.70;4.35;;;;;;;;;;5050369;28;20505;-59
2022/10/07 08:21:04;;;;;;;20.15;4.60;;;13.40;99.90;;;;;;5052412;28;20435;-60
2022/10/07 08:23:34;;;;;;;20.85;4.50;;;13.60;99.90;;;;;;5053442;28;20040;-60
2022/10/07 08:26:01;;;;;;;20.75;4.60;;;13.60;99.90;;;;;;5054215;28;20033;-59
2022/10/07 08:28:27;;;;;;;20.95;4.70;;;14.00;99.90;;;;;;5054248;28;20040;-59
2022/10/07 08:31:00;;;;;;;20.40;4.30;;;14.10;99.90;;;;;;5054763;28;20047;-60
2022/10/07 08:33:26;;;;;;;19.77;4.40;;;;;;;;;;5053723;28;20412;-60
2022/10/07 08:35:58;;;;;;;22.73;4.55;;;13.60;99.90;;;;;;5054635;28;20041;-60
2022/10/07 08:38:24;;;;;;;18.52;4.28;;;14.00;99.90;;;;;;5054184;28;20061;-59
2022/10/07 08:40:52;;;;;;;21.35;4.50;;;13.70;99.90;;;;;;5054359;28;20060;-60
2022/10/07 08:43:22;;;;;;;17.17;4.07;;;13.80;99.90;;;;;;5054252;28;20480;-59
2022/10/07 08:45:54;;;;;;;22.42;5.20;;;13.60;99.90;;;;;;5052798;28;20156;-59
2022/10/07 08:48:31;;;;;;;19.92;4.60;;;13.70;99.90;;;;;;5053709;28;20036;-60
2022/10/07 08:51:08;;;;;;;21.83;4.78;;;13.70;99.90;;;;;;5053853;28;20091;-59
2022/10/07 08:53:36;;;;;;;18.70;3.95;;;14.00;99.90;;;;;;5054351;28;20063;-59
2022/10/07 08:56:15;;;;;;;20.33;4.47;;;14.00;99.90;;;;;;5053882;28;20511;-59
2022/10/07 08:58:50;;;;;;;17.83;4.45;;;14.40;99.90;;;;;;5054128;28;20029;-60
2022/10/07 09:02:07;;;;;;;21.85;4.35;;;14.90;99.90;;;;;;5054061;28;20074;-60
2022/10/07 09:04:53;;;;;;;26.58;4.60;;;14.90;99.90;;;;;;5051483;28;20053;-60
2022/10/07 09:07:27;;;;;;;16.48;4.43;;;15.20;99.90;;;;;;5051743;28;20049;-60
2022/10/07 09:09:57;;;;;;;20.40;4.50;;;15.30;99.90;;;;;;5051627;28;20059;-60
2022/10/07 09:12:36;;;;;;;19.35;4.50;;;15.40;99.90;;;;;;5046704;28;20367;-60
2022/10/07 09:15:05;;;;;;;19.75;3.97;;;15.00;99.90;;;;;;5031401;28;20405;-60
2022/10/07 09:17:39;;;;;;;17.48;4.75;;;15.30;99.90;;;;;;5031528;28;20049;-60
2022/10/07 09:20:17;;;;;;;19.42;4.30;;;15.20;99.90;;;;;;5031546;28;20053;-60
2022/10/07 09:22:52;;;;;;;23.30;4.05;;;16.00;99.90;;;;;;5031593;28;20371;-60
2022/10/07 09:25:26;;;;;;;15.45;3.70;;;15.90;99.90;;;;;;5031135;28;20128;-60
2022/10/07 09:27:53;;;;;;;17.80;3.92;;;16.10;99.90;;;;;;5029343;28;20431;-60
2022/10/07 09:30:23;;;;;;;16.15;3.65;;;16.50;99.90;;;;;;5029961;28;20121;-60
2022/10/07 09:32:54;;;;;;;17.23;3.90;;;16.20;99.90;;;;;;5014419;28;20108;-60
2022/10/07 09:35:24;;;;;;;20.90;4.30;;;16.20;99.90;;;;;;5030943;28;20116;-60
2022/10/07 09:37:59;;;;;;;16.20;3.92;;;15.70;99.90;;;;;;5031183;28;20037;-61
2022/10/07 09:43:28;;;;;;;14.63;3.78;;;16.20;99.90;;;;;;5051968;28;20059;-60
2022/10/07 09:45:55;;;;;;;20.70;4.55;;;16.60;99.90;;;;;;5051863;28;20077;-60
2022/10/07 09:48:26;;;;;;;19.50;4.35;;;15.80;99.90;;;;;;5045345;28;20457;-60
2022/10/07 09:51:14;;;;;;;20.27;4.20;;;16.30;99.90;;;;;;5031914;28;20524;-62
2022/10/07 09:54:04;;;;;;;17.23;4.00;;;16.30;99.90;;;;;;5065008;28;20037;-61
2022/10/07 09:56:45;;;;;;;16.35;4.03;;;16.90;99.90;;;;;;5032135;28;20049;-60
2022/10/07 09:59:26;;;;;;;18.85;4.00;;;16.50;99.90;;;;;;5032199;28;20045;-60
2022/10/07 10:02:08;;;;;;;17.08;3.60;;;16.10;99.90;;;;;;5033429;28;20049;-61
2022/10/07 10:04:38;;;;;;;14.40;3.85;;;16.50;99.90;;;;;;5033049;28;20076;-61
2022/10/07 10:07:14;;;;;;;15.93;4.00;;;16.30;99.90;;;;;;5032966;28;20060;-60
2022/10/07 10:09:48;;;;;;;21.65;4.30;;;16.20;99.90;;;;;;5065340;28;20037;-61
2022/10/07 10:12:15;;;;;;;21.08;3.92;;;16.60;99.90;;;;;;5032939;28;20489;-60
2022/10/07 10:14:52;;;;;;;19.75;3.97;;;16.90;99.90;;;;;;5033048;28;20049;-61
2022/10/07 10:17:29;;;;;;;17.67;3.97;;;16.50;99.90;;;;;;5032736;28;20044;-61
2022/10/07 10:20:15;;;;;;;17.38;4.15;;;16.50;99.90;;;;;;5033078;28;20112;-61
2022/10/07 10:22:41;;;;;;;16.80;3.55;;;16.50;99.90;;;;;;5032969;28;20042;-61
2022/10/07 10:28:12;;;;;;;15.63;3.80;;;16.90;99.90;;;;;;5032225;28;20049;-61
2022/10/07 10:30:47;;;;;;;21.60;4.10;;;16.80;99.90;;;;;;5032918;28;20120;-62
2022/10/07 10:33:39;;;;;;;17.60;3.53;;;17.10;99.90;;;;;;5033240;28;20040;-62
2022/10/07 10:36:18;;;;;;;15.73;3.10;;;16.80;99.90;;;;;;5032738;28;20041;-62
2022/10/07 10:38:52;;;;;;;21.80;3.58;;;17.00;99.90;;;;;;5033029;28;20048;-62
2022/10/07 10:41:53;;;;;;;16.83;3.45;;;16.70;99.90;;;;;;5032804;28;20172;-61
2022/10/07 10:44:57;;;;;;;14.38;3.20;;;17.20;99.90;;;;;;5032509;28;20180;-61
2022/10/07 10:47:44;;;;;;;16.13;3.40;;;17.20;99.90;;;;;;5036537;28;20379;-61
2022/10/07 10:50:22;;;;;;;17.45;3.67;;;17.80;99.90;;;;;;5038335;28;20072;-61
2022/10/07 10:53:14;;;;;;;17.75;3.63;;;17.20;99.90;;;;;;5043097;28;20075;-61
2022/10/07 10:56:05;;;;;;;17.85;3.90;;;17.40;99.90;;;;;;5044669;28;20044;-61
2022/10/07 10:59:08;;;;;;;16.80;3.80;;;16.90;99.90;;;;;;5044438;28;20501;-61
2022/10/07 11:01:39;;;;;;;17.52;3.50;;;17.10;99.90;;;;;;5044724;28;20124;-61
2022/10/07 11:04:28;;;;;;;17.63;3.92;;;17.20;99.90;;;;;;5055037;28;20081;-61
2022/10/07 11:07:15;;;;;;;16.20;3.22;;;17.60;99.90;;;;;;5054936;28;20114;-61
2022/10/07 11:10:28;;;;;;;14.35;3.40;;;17.70;99.90;;;;;;5054336;28;20099;-61
2022/10/07 11:12:59;;;;;;;18.02;3.60;;;17.60;99.90;;;;;;5053657;28;20060;-61
2022/10/07 11:15:31;;;;;;;15.02;3.47;;;17.60;99.90;;;;;;5054975;28;20049;-61
2022/10/07 11:18:02;;;;;;;12.98;3.55;;;17.70;99.90;;;;;;5054991;28;20364;-61
2022/10/07 11:20:36;;;;;;;18.80;3.67;;;17.50;99.90;;;;;;5053708;28;20481;-61
2022/10/07 11:23:27;;;;;;;15.30;3.60;;;17.50;99.90;;;;;;5054532;28;20056;-61
2022/10/07 11:26:01;;;;;;;20.50;3.78;;;17.60;99.90;;;;;;5054841;28;20049;-61
2022/10/07 11:28:31;;;;;;;20.13;3.70;;;18.60;99.90;;;;;;5054564;28;20444;-61
2022/10/07 11:31:23;;;;;;;21.70;3.67;;;18.00;99.90;;;;;;5054728;28;20434;-61
2022/10/07 11:33:59;;;;;;;20.20;3.95;;;18.20;99.90;;;;;;5054499;28;20049;-62
2022/10/07 11:36:51;;;;;;;28.27;4.40;;;17.90;99.90;;;;;;5055510;28;20115;-61
2022/10/07 11:39:17;;;;;;;17.77;3.78;;;17.70;99.90;;;;;;5054897;28;20131;-61
2022/10/07 11:42:18;;;;;;;18.50;3.60;;;17.80;99.90;;;;;;5054493;28;20053;-61
2022/10/07 11:45:36;;;;;;;14.30;3.50;;;17.80;99.90;;;;;;5044274;28;20044;-61
2022/10/07 11:48:09;;;;;;;20.02;4.00;;;17.60;99.90;;;;;;5039066;28;20046;-61
2022/10/07 11:50:39;;;;;;;19.73;4.03;;;18.30;99.90;;;;;;5035294;28;20130;-61
2022/10/07 11:53:16;;;;;;;15.82;3.55;;;18.40;99.90;;;;;;5035756;28;20033;-61
2022/10/07 11:55:46;;;;;;;17.70;3.63;;;18.30;99.90;;;;;;5035521;28;20397;-61
2022/10/07 11:58:28;;;;;;;14.68;3.60;;;18.00;99.90;;;;;;5034386;28;20038;-62
2022/10/07 12:01:24;;;;;;;14.38;3.30;;;18.10;99.90;;;;;;5033677;28;20048;-61
2022/10/07 12:04:16;;;;;;;14.43;3.30;;;18.10;99.90;;;;;;5034576;28;20042;-62
2022/10/07 12:07:22;;;;;;;15.80;3.67;;;18.40;99.90;;;;;;5032929;28;20451;-61
2022/10/07 12:10:04;;;;;;;18.48;3.42;;;18.60;99.90;;;;;;5035044;28;20045;-61
2022/10/07 12:12:42;;;;;;;14.73;3.15;;;19.30;99.90;;;;;;5035206;28;20053;-61
2022/10/07 12:15:26;;;;;;;18.98;3.63;;;19.50;99.90;;;;;;5034595;28;20124;-61
2022/10/07 12:18:15;;;;;;;15.43;3.22;;;18.80;99.90;;;;;;5034861;28;20052;-61
2022/10/07 12:20:52;;;;;;;14.15;3.20;;;18.30;99.90;;;;;;5034810;28;20049;-61
2022/10/07 12:23:21;;;;;;;23.17;3.42;;;18.70;99.90;;;;;;5034831;28;20041;-61
2022/10/07 12:25:47;;;;;;;19.83;3.63;;;;;;;;;;5035152;28;20397;-61
2022/10/07 12:28:40;;;;;;;17.77;3.20;;;18.60;99.90;;;;;;5034735;28;20230;-61
2022/10/07 12:31:14;;;;;;;18.23;3.38;;;18.40;99.90;;;;;;5031764;28;20053;-61
2022/10/07 12:33:56;;;;;;;19.23;3.42;;;18.10;99.90;;;;;;5034690;28;20151;-61
2022/10/07 12:36:29;;;;;;;14.85;3.10;;;18.60;99.90;;;;;;5034580;28;20038;-61
2022/10/07 12:38:58;;;;;;;17.02;3.30;;;18.30;99.90;;;;;;5033173;28;20429;-62
2022/10/07 12:41:31;;;;;;;15.82;3.40;;;18.30;99.90;;;;;;5034379;28;20037;-61
2022/10/07 12:43:59;;;;;;;14.35;3.40;;;18.20;99.90;;;;;;5034408;28;20061;-61
2022/10/07 12:46:30;;;;;;;13.82;2.88;;;18.30;99.90;;;;;;5034382;28;20103;-62
2022/10/07 12:49:01;;;;;;;15.73;3.25;;;18.10;99.90;;;;;;5034136;28;20164;-61
2022/10/07 12:51:38;;;;;;;19.00;3.53;;;18.30;99.90;;;;;;5033654;28;20041;-63
2022/10/07 12:54:22;;;;;;;17.75;3.63;;;18.30;99.90;;;;;;5033280;28;20053;-59
2022/10/07 12:56:49;;;;;;;12.65;2.75;;;18.30;99.90;;;;;;5034404;28;20128;-60
2022/10/07 12:59:49;;;;;;;15.60;3.58;;;17.90;99.90;;;;;;5034128;28;20175;-59
2022/10/07 13:02:15;;;;;;;15.85;2.83;;;;;;;;;;5034044;28;20107;-59
2022/10/07 13:05:05;;;;;;;12.73;2.67;;;18.10;99.90;;;;;;5034085;28;20045;-59
2022/10/07 13:08:03;;;;;;;13.65;2.65;;;18.10;99.90;;;;;;5033867;28;20071;-59
2022/10/07 13:10:48;;;;;;;14.88;3.00;;;18.10;99.90;;;;;;5034069;28;20044;-62
2022/10/07 13:13:37;;;;;;;18.00;3.37;;;17.90;99.90;;;;;;5033897;28;20053;-61
2022/10/07 13:16:37;;;;;;;13.75;3.00;;;17.90;99.90;;;;;;5033696;28;20441;-61
2022/10/07 13:19:15;;;;;;;12.02;3.00;;;18.00;99.90;;;;;;5033675;28;20490;-61
2022/10/07 13:22:05;;;;;;;13.15;3.17;;;18.30;99.90;;;;;;5034068;28;20120;-61
2022/10/07 13:24:31;;;;;;;16.98;3.33;;;18.20;99.90;;;;;;5032383;28;20045;-61
2022/10/07 13:26:58;;;;;;;10.52;2.60;;;18.70;99.90;;;;;;5033457;28;20124;-61
2022/10/07 13:29:27;;;;;;;14.60;2.90;;;18.50;99.90;;;;;;5033754;28;20052;-61
2022/10/07 13:32:04;;;;;;;11.88;2.90;;;18.80;99.90;;;;;;5033692;28;20081;-62
2022/10/07 13:34:30;;;;;;;15.02;2.75;;;18.20;99.90;;;;;;5034417;28;20041;-62
2022/10/07 13:36:56;;;;;;;12.40;2.83;;;18.00;99.90;;;;;;5067063;28;20479;-59
2022/10/07 13:39:23;;;;;;;14.55;3.10;;;18.20;99.90;;;;;;5064718;28;20117;-59